Wicomico, Virginia
Current Conditions -  °F | °C
As of 6:54 AM on Thursday 18 Dec 2014 (Local Time) from KPHF Reporting Station
Clear Clear  
Wind Chill: 30°   Ceiling: Unl
Heat Index: 38°   Visibility: 10mi
Dew Point: 23°   Wind: 12mph
Humidity: 55%   Direction: 350°N
Pressure: 30.15"   Gusts: 17mph
Location:  37.29°N, 76.51°W
Report Text: KPHF 181154Z 35010G15KT 10SM CLR 03/M05 A3015 RMK AO2 SLP210 T00331050 10067 20028 53018
Loading
Personal Weather Stations






























Interactive Weather Map New forecast layout! Learn more

10-Day Weather Forecast

Advertisements
Track Severe Weather on mobile